Time;durP1;ratioP1;P1;durP2;ratioP2;P2;SDS_P1;SDS_P2;PMS_P1;PMS_P2;Temp;Humidity;BMP_temperature;BMP_pressure;BME280_temperature;BME280_humidity;BME280_pressure;Samples;Min_cycle;Max_cycle;Signal;HPM_P1;HPM_P2
2022/04/22 00:00:58;;;;;;;8.15;6.05;;;7.80;99.70;;;;;;5045971;28;20100;-71
2022/04/22 00:03:24;;;;;;;8.93;5.88;;;7.70;99.80;;;;;;5050131;28;20060;-71
2022/04/22 00:05:49;;;;;;;9.45;5.28;;;7.70;99.90;;;;;;5047971;28;20028;-72
2022/04/22 00:08:15;;;;;;;8.55;5.70;;;7.60;99.90;;;;;;5048656;28;20063;-72
2022/04/22 00:11:29;;;;;;;9.77;6.22;;;7.60;99.90;;;;;;5049909;28;20021;-72
2022/04/22 00:13:26;;;;;;;11.20;6.88;;;7.60;99.90;;;;;;5048967;28;20025;-72
2022/04/22 00:15:52;;;;;;;8.77;6.32;;;7.50;99.90;;;;;;5049391;28;20034;-72
2022/04/22 00:18:18;;;;;;;9.73;6.50;;;7.50;99.90;;;;;;5053735;28;20465;-72
2022/04/22 00:20:44;;;;;;;9.27;6.70;;;7.40;99.90;;;;;;5051777;28;20033;-73
2022/04/22 00:23:10;;;;;;;9.60;6.45;;;7.30;99.90;;;;;;5047855;28;20017;-73
2022/04/22 00:25:36;;;;;;;9.50;5.82;;;7.30;99.90;;;;;;5045823;28;20053;-71
2022/04/22 00:28:02;;;;;;;10.43;5.90;;;7.30;99.90;;;;;;5051691;28;20063;-71
2022/04/22 00:30:29;;;;;;;7.40;5.45;;;7.30;99.90;;;;;;5046580;28;20037;-70
2022/04/22 00:32:55;;;;;;;8.75;6.05;;;7.20;99.90;;;;;;5053734;28;20108;-73
2022/04/22 00:35:20;;;;;;;9.70;6.03;;;7.20;99.90;;;;;;5054274;28;20060;-71
2022/04/22 00:37:47;;;;;;;8.90;5.68;;;7.20;99.90;;;;;;5054237;28;20021;-73
2022/04/22 00:40:13;;;;;;;7.97;6.03;;;7.20;99.90;;;;;;5054300;28;20470;-72
2022/04/22 00:42:39;;;;;;;10.18;6.15;;;7.20;99.90;;;;;;5054284;28;20028;-73
2022/04/22 00:45:05;;;;;;;8.98;5.95;;;7.20;99.90;;;;;;5053636;28;20071;-71
2022/04/22 00:47:31;;;;;;;10.65;6.70;;;7.20;99.90;;;;;;5049557;28;20029;-70
2022/04/22 00:49:57;;;;;;;10.98;6.45;;;7.20;99.90;;;;;;5045645;28;20037;-70
2022/04/22 00:52:23;;;;;;;10.70;6.63;;;7.10;99.90;;;;;;5047587;28;20061;-70
2022/04/22 00:54:49;;;;;;;11.07;7.70;;;7.10;99.90;;;;;;5048979;28;20074;-70
2022/04/22 00:57:16;;;;;;;10.10;6.32;;;7.10;99.90;;;;;;5049147;28;20025;-70
2022/04/22 00:59:43;;;;;;;8.93;6.22;;;7.10;99.90;;;;;;5049724;28;20029;-70
2022/04/22 01:02:08;;;;;;;9.35;6.30;;;7.10;99.90;;;;;;5047781;28;20651;-71
2022/04/22 01:10:04;;;;;;;9.88;6.60;;;6.90;99.90;;;;;;5047110;28;20039;-70
2022/04/22 01:12:30;;;;;;;11.05;6.65;;;6.90;99.90;;;;;;5048182;28;20029;-70
2022/04/22 01:14:56;;;;;;;9.20;6.45;;;6.90;99.90;;;;;;5045371;28;20111;-70
2022/04/22 01:17:22;;;;;;;11.13;6.35;;;6.90;99.90;;;;;;5051752;28;20025;-70
2022/04/22 01:19:48;;;;;;;12.82;6.80;;;6.80;99.90;;;;;;5047378;28;20063;-72
2022/04/22 01:22:14;;;;;;;10.32;6.40;;;6.80;99.90;;;;;;5044275;28;20521;-71
2022/04/22 01:24:40;;;;;;;13.10;7.35;;;6.80;99.90;;;;;;5049209;28;20029;-71
2022/04/22 01:27:07;;;;;;;13.23;7.05;;;6.70;99.90;;;;;;5048078;28;20013;-71
2022/04/22 01:29:33;;;;;;;9.30;5.75;;;6.70;99.90;;;;;;5048085;28;20662;-70
2022/04/22 01:32:00;;;;;;;10.73;6.65;;;6.70;99.90;;;;;;5046613;28;20032;-71
2022/04/22 01:34:26;;;;;;;11.05;7.05;;;6.70;99.90;;;;;;5049503;28;20028;-72
2022/04/22 01:36:52;;;;;;;13.75;6.53;;;6.60;99.90;;;;;;5044506;28;20481;-71
2022/04/22 01:39:17;;;;;;;12.38;6.55;;;6.60;99.90;;;;;;5052352;28;20040;-71
2022/04/22 01:41:43;;;;;;;11.10;7.05;;;6.60;99.90;;;;;;5047937;28;20040;-71
2022/04/22 01:44:09;;;;;;;12.35;6.80;;;6.60;99.90;;;;;;5047436;28;20029;-71
2022/04/22 01:46:35;;;;;;;10.30;6.63;;;6.60;99.90;;;;;;5053324;28;20485;-71
2022/04/22 01:49:02;;;;;;;9.85;7.30;;;6.50;99.90;;;;;;5045283;28;20059;-71
2022/04/22 01:51:28;;;;;;;11.30;7.85;;;6.40;99.90;;;;;;5042909;28;20026;-70
2022/04/22 01:53:54;;;;;;;10.20;7.40;;;6.40;99.90;;;;;;5047646;28;20036;-70
2022/04/22 01:56:20;;;;;;;11.27;7.15;;;6.30;99.90;;;;;;5045789;28;20029;-71
2022/04/22 01:58:45;;;;;;;11.45;7.30;;;6.20;99.90;;;;;;5043995;28;20056;-71
2022/04/22 02:01:11;;;;;;;11.38;6.85;;;6.20;99.90;;;;;;5047217;28;20406;-71
2022/04/22 02:03:37;;;;;;;12.95;7.32;;;6.20;99.90;;;;;;5046869;28;20036;-71
2022/04/22 02:06:04;;;;;;;13.73;8.68;;;6.10;99.90;;;;;;5048958;28;20370;-71
2022/04/22 02:08:31;;;;;;;16.65;9.77;;;6.10;99.90;;;;;;5046498;28;20078;-71
2022/04/22 02:10:56;;;;;;;19.00;10.80;;;6.00;99.90;;;;;;5050526;28;20025;-70
2022/04/22 02:13:22;;;;;;;17.23;11.25;;;6.00;99.90;;;;;;5048345;28;20098;-70
2022/04/22 02:15:48;;;;;;;16.10;9.98;;;6.00;99.90;;;;;;5047055;28;20048;-70
2022/04/22 02:18:13;;;;;;;11.95;8.45;;;6.00;99.90;;;;;;5045850;28;20108;-70
2022/04/22 02:20:39;;;;;;;14.35;9.15;;;6.00;99.90;;;;;;5051790;28;20022;-69
2022/04/22 02:23:05;;;;;;;10.20;7.22;;;5.90;99.90;;;;;;5050682;28;20052;-70
2022/04/22 02:25:31;;;;;;;11.70;7.68;;;5.90;99.90;;;;;;5047843;28;20115;-69
2022/04/22 02:30:40;;;;;;;11.90;7.78;;;5.80;99.90;;;;;;5042650;28;20071;-69
2022/04/22 02:33:06;;;;;;;12.05;7.18;;;5.80;99.90;;;;;;5046226;28;20040;-69
2022/04/22 02:35:31;;;;;;;15.48;9.15;;;5.80;99.90;;;;;;5045039;28;20539;-70
2022/04/22 02:37:57;;;;;;;14.25;7.97;;;5.70;99.90;;;;;;5047680;28;20025;-69
2022/04/22 02:45:51;;;;;;;18.73;10.20;;;5.60;99.90;;;;;;5046863;28;20469;-70
2022/04/22 02:48:17;;;;;;;14.02;9.35;;;5.60;99.90;;;;;;5044495;28;20021;-71
2022/04/22 02:50:43;;;;;;;16.83;9.20;;;5.60;99.90;;;;;;5043708;28;20033;-70
2022/04/22 02:53:09;;;;;;;16.25;9.00;;;5.60;99.90;;;;;;5043948;28;20020;-70
2022/04/22 02:55:40;;;;;;;15.38;7.90;;;5.60;99.90;;;;;;5047320;28;20699;-70
2022/04/22 02:58:07;;;;;;;13.00;8.20;;;5.50;99.90;;;;;;5041995;28;20017;-70
2022/04/22 03:00:33;;;;;;;12.20;7.55;;;5.50;99.90;;;;;;5040838;28;20385;-71
2022/04/22 03:02:58;;;;;;;12.77;8.27;;;5.50;99.90;;;;;;5045382;28;20087;-70
2022/04/22 03:05:24;;;;;;;13.55;8.05;;;5.40;99.90;;;;;;5046047;28;20405;-70
2022/04/22 03:07:50;;;;;;;13.05;8.38;;;5.40;99.90;;;;;;5041278;28;20025;-71
2022/04/22 03:10:17;;;;;;;13.35;7.40;;;5.40;99.90;;;;;;5044298;28;20047;-70
2022/04/22 03:12:43;;;;;;;12.82;6.90;;;5.40;99.90;;;;;;5041965;28;20465;-69
2022/04/22 03:15:09;;;;;;;13.25;8.02;;;5.30;99.90;;;;;;5055454;28;20504;-70
2022/04/22 03:17:40;;;;;;;18.35;8.80;;;5.30;99.90;;;;;;5038913;28;20040;-70
2022/04/22 03:20:06;;;;;;;19.50;9.90;;;5.30;99.90;;;;;;5046878;28;20079;-70
2022/04/22 03:22:33;;;;;;;17.70;9.65;;;5.20;99.90;;;;;;5044382;28;20108;-70
2022/04/22 03:25:00;;;;;;;16.52;7.95;;;5.20;99.90;;;;;;5050213;28;20017;-70
2022/04/22 03:27:29;;;;;;;18.27;9.88;;;5.20;99.90;;;;;;5047082;28;20021;-72
2022/04/22 03:29:54;;;;;;;16.00;8.52;;;5.20;99.90;;;;;;5050201;28;20044;-69
2022/04/22 03:32:20;;;;;;;14.82;8.70;;;5.10;99.90;;;;;;5043527;28;20044;-69
2022/04/22 03:34:45;;;;;;;15.57;8.45;;;5.10;99.90;;;;;;5048387;28;20378;-70
2022/04/22 03:37:11;;;;;;;20.48;8.80;;;5.00;99.90;;;;;;5048124;28;20501;-70
2022/04/22 03:39:37;;;;;;;14.90;8.95;;;5.00;99.90;;;;;;5047228;28;20029;-70
2022/04/22 03:42:02;;;;;;;16.23;8.55;;;5.10;99.90;;;;;;5048405;28;20722;-70
2022/04/22 03:44:31;;;;;;;17.45;8.95;;;5.00;99.90;;;;;;5044808;28;20104;-70
2022/04/22 03:46:57;;;;;;;13.82;8.23;;;5.00;99.90;;;;;;5048488;28;20048;-70
2022/04/22 03:49:22;;;;;;;13.98;8.45;;;5.00;99.90;;;;;;5045358;28;20044;-70
2022/04/22 03:51:48;;;;;;;13.45;8.52;;;4.90;99.90;;;;;;5048140;28;20028;-70
2022/04/22 03:54:18;;;;;;;15.45;8.38;;;4.90;99.90;;;;;;5044885;28;24146;-71
2022/04/22 03:59:28;;;;;;;12.48;8.32;;;4.90;99.90;;;;;;5048707;28;20492;-70
2022/04/22 04:01:53;;;;;;;16.00;8.13;;;4.80;99.90;;;;;;5047357;28;20059;-69
2022/04/22 04:04:19;;;;;;;13.32;7.68;;;4.90;99.90;;;;;;5051009;28;20098;-70
2022/04/22 04:06:45;;;;;;;9.98;7.22;;;4.90;99.90;;;;;;5044389;28;20052;-70
2022/04/22 04:17:25;;;;;;;15.27;8.35;;;4.80;99.90;;;;;;5046290;28;20064;-70
2022/04/22 04:25:25;;;;;;;14.93;8.52;;;4.70;99.90;;;;;;5046396;28;20128;-70
2022/04/22 04:27:51;;;;;;;16.10;8.45;;;4.70;99.90;;;;;;5047363;28;20533;-70
2022/04/22 04:30:17;;;;;;;13.25;8.13;;;4.70;99.90;;;;;;5042708;28;20024;-70
2022/04/22 04:32:43;;;;;;;17.60;8.82;;;4.70;99.90;;;;;;5054814;28;20081;-68
2022/04/22 04:35:08;;;;;;;17.48;8.75;;;4.70;99.90;;;;;;5054389;28;20447;-69
2022/04/22 04:37:42;;;;;;;14.20;8.43;;;4.70;99.90;;;;;;5054676;28;20032;-69
2022/04/22 04:40:11;;;;;;;12.60;8.60;;;4.60;99.90;;;;;;5053671;28;20021;-70
2022/04/22 04:42:37;;;;;;;15.25;9.10;;;4.60;99.90;;;;;;5054800;28;20017;-70
2022/04/22 04:45:06;;;;;;;15.68;8.82;;;4.70;99.90;;;;;;5053128;28;20033;-69
2022/04/22 04:47:41;;;;;;;15.05;8.88;;;4.70;99.90;;;;;;5054681;28;20044;-69
2022/04/22 04:50:08;;;;;;;15.35;9.85;;;4.80;99.90;;;;;;5054702;28;20025;-69
2022/04/22 04:52:34;;;;;;;16.20;8.75;;;4.80;99.90;;;;;;5053377;28;20052;-70
2022/04/22 04:55:00;;;;;;;16.77;9.52;;;4.70;99.90;;;;;;5054163;28;20462;-70
2022/04/22 04:57:29;;;;;;;16.67;9.43;;;4.80;99.90;;;;;;5047542;28;20027;-71
2022/04/22 04:59:54;;;;;;;20.55;10.52;;;4.80;99.90;;;;;;5053260;28;20445;-70
2022/04/22 05:02:20;;;;;;;15.40;9.35;;;4.80;99.90;;;;;;5049673;28;20048;-71
2022/04/22 05:04:46;;;;;;;15.30;9.43;;;4.80;99.90;;;;;;5052463;28;20029;-70
2022/04/22 05:07:18;;;;;;;17.13;8.95;;;4.80;99.90;;;;;;5052339;28;20477;-70
2022/04/22 05:09:44;;;;;;;16.23;8.68;;;4.90;99.90;;;;;;5053936;28;20111;-70
2022/04/22 05:12:12;;;;;;;17.55;9.30;;;4.90;99.90;;;;;;5053947;28;20060;-70
2022/04/22 05:14:53;;;;;;;14.60;9.30;;;5.00;99.90;;;;;;5047464;28;20037;-70
2022/04/22 05:17:19;;;;;;;13.25;8.60;;;5.20;99.90;;;;;;5045592;28;20108;-70
2022/04/22 05:19:44;;;;;;;16.20;9.07;;;5.30;99.90;;;;;;5052901;28;20120;-71
2022/04/22 05:22:10;;;;;;;16.02;9.00;;;5.50;99.90;;;;;;5047302;28;20142;-70
2022/04/22 05:24:37;;;;;;;17.95;9.15;;;5.60;99.90;;;;;;5051117;28;20024;-71
2022/04/22 05:27:03;;;;;;;17.35;9.90;;;5.70;99.90;;;;;;5048763;28;20017;-72
2022/04/22 05:34:57;;;;;;;15.77;10.13;;;6.10;99.90;;;;;;5044398;28;20094;-70
2022/04/22 05:37:22;;;;;;;15.38;9.02;;;6.20;99.90;;;;;;5048878;28;20025;-69
2022/04/22 05:39:48;;;;;;;19.23;9.90;;;6.20;99.90;;;;;;5053512;28;20060;-70
2022/04/22 05:42:14;;;;;;;17.65;9.35;;;6.30;99.90;;;;;;5049340;28;20017;-72
2022/04/22 05:44:39;;;;;;;16.55;9.50;;;6.40;99.90;;;;;;5046812;28;20021;-69
2022/04/22 05:47:07;;;;;;;19.85;9.55;;;6.50;99.90;;;;;;5041644;28;20040;-70
2022/04/22 05:49:35;;;;;;;17.40;9.75;;;6.60;99.90;;;;;;5053403;28;20025;-72
2022/04/22 05:52:01;;;;;;;17.73;9.90;;;6.70;99.90;;;;;;5068592;28;20079;-72
2022/04/22 05:54:27;;;;;;;19.38;11.88;;;6.80;99.90;;;;;;5052637;28;20021;-71
2022/04/22 05:56:52;;;;;;;18.55;9.75;;;6.90;99.90;;;;;;5052553;28;20484;-71
2022/04/22 05:59:18;;;;;;;20.02;11.57;;;6.90;99.90;;;;;;5049560;28;20025;-73
2022/04/22 06:01:44;;;;;;;19.13;11.27;;;7.00;99.90;;;;;;5047489;28;20029;-70
2022/04/22 06:04:09;;;;;;;21.63;12.70;;;7.10;99.90;;;;;;5044884;28;20012;-69
2022/04/22 06:06:38;;;;;;;20.00;11.13;;;7.20;99.90;;;;;;5051872;28;20028;-69
2022/04/22 06:11:51;;;;;;;16.27;11.25;;;7.20;99.90;;;;;;5047816;28;20440;-71
2022/04/22 06:14:23;;;;;;;18.30;11.75;;;7.20;99.90;;;;;;5041625;28;20832;-69
2022/04/22 06:16:48;;;;;;;18.70;12.25;;;7.20;99.90;;;;;;5043792;28;20104;-69
2022/04/22 06:19:14;;;;;;;19.80;12.35;;;7.20;99.90;;;;;;5043691;28;20112;-69
2022/04/22 06:21:40;;;;;;;19.77;11.43;;;7.30;99.90;;;;;;5046525;28;20052;-69
2022/04/22 06:24:06;;;;;;;21.55;12.60;;;7.40;99.90;;;;;;5041922;28;20021;-69
2022/04/22 06:26:31;;;;;;;21.90;12.60;;;7.30;99.90;;;;;;5045443;28;20477;-69
2022/04/22 06:28:57;;;;;;;23.02;13.57;;;7.20;99.90;;;;;;5044455;28;20060;-69
2022/04/22 06:31:23;;;;;;;21.30;13.35;;;7.30;99.90;;;;;;5048315;28;20059;-69
2022/04/22 06:33:49;;;;;;;23.27;14.20;;;7.30;99.90;;;;;;5046803;28;20028;-68
2022/04/22 06:36:17;;;;;;;23.50;13.75;;;7.30;99.90;;;;;;5051987;28;20036;-68
2022/04/22 06:38:45;;;;;;;23.45;13.82;;;7.40;99.90;;;;;;5048182;28;20029;-68
2022/04/22 06:46:39;;;;;;;24.40;13.75;;;7.50;99.90;;;;;;5051623;28;19919;-68
2022/04/22 06:49:05;;;;;;;22.92;13.52;;;7.40;99.90;;;;;;5050142;28;20048;-69
2022/04/22 06:51:31;;;;;;;25.02;15.15;;;7.40;99.90;;;;;;5054438;28;20375;-69
2022/04/22 06:53:57;;;;;;;23.25;14.82;;;7.50;99.90;;;;;;5050316;28;20458;-69
2022/04/22 06:56:27;;;;;;;23.40;13.80;;;7.50;99.90;;;;;;5044505;28;20040;-70
2022/04/22 06:58:53;;;;;;;28.00;14.70;;;7.70;99.90;;;;;;5053948;28;20028;-69
2022/04/22 07:01:19;;;;;;;25.90;16.55;;;7.70;99.90;;;;;;5043026;28;20021;-70
2022/04/22 07:03:45;;;;;;;22.58;13.95;;;7.80;99.90;;;;;;5050468;28;20032;-70
2022/04/22 07:06:11;;;;;;;28.23;16.98;;;7.80;99.90;;;;;;5048950;28;20450;-67
2022/04/22 07:08:42;;;;;;;23.15;14.32;;;7.80;99.90;;;;;;5050180;28;20563;-67
2022/04/22 07:11:13;;;;;;;24.35;15.70;;;7.90;99.90;;;;;;5044628;28;20359;-68
2022/04/22 07:13:43;;;;;;;25.45;15.05;;;8.00;99.90;;;;;;5049911;28;20076;-70
2022/04/22 07:16:11;;;;;;;26.00;15.20;;;7.90;99.90;;;;;;5050581;28;20043;-70
2022/04/22 07:18:40;;;;;;;26.90;15.82;;;8.00;99.90;;;;;;5048621;28;20033;-70
2022/04/22 07:21:06;;;;;;;25.33;16.60;;;8.10;99.90;;;;;;5051493;28;20110;-68
2022/04/22 07:23:32;;;;;;;28.38;17.27;;;8.10;99.90;;;;;;5051527;28;20489;-69
2022/04/22 07:25:59;;;;;;;28.30;16.20;;;8.20;99.90;;;;;;5048077;28;20325;-69
2022/04/22 07:28:31;;;;;;;26.63;15.90;;;8.20;99.90;;;;;;5050452;28;20059;-70
2022/04/22 07:30:57;;;;;;;27.60;15.65;;;8.30;99.90;;;;;;5047904;28;20016;-69
2022/04/22 07:33:23;;;;;;;27.23;15.90;;;8.40;99.90;;;;;;5047167;28;20032;-69
2022/04/22 07:35:49;;;;;;;26.27;15.70;;;8.50;99.90;;;;;;5042304;28;20030;-69
2022/04/22 07:38:15;;;;;;;26.00;16.48;;;8.60;99.90;;;;;;5047869;28;20025;-70
2022/04/22 07:40:43;;;;;;;28.75;17.02;;;8.60;99.90;;;;;;5045502;28;20449;-70
2022/04/22 07:48:37;;;;;;;;;;;8.80;99.90;;;;;;5050432;28;20040;-69
2022/04/22 07:51:06;;;;;;;23.70;15.55;;;8.90;99.90;;;;;;5049682;28;20003;-69
2022/04/22 07:53:32;;;;;;;29.20;16.35;;;9.00;99.90;;;;;;5051136;28;20107;-69
2022/04/22 07:55:58;;;;;;;24.48;16.27;;;9.00;99.90;;;;;;5050021;28;20025;-70
2022/04/22 07:58:23;;;;;;;25.77;16.35;;;9.20;99.90;;;;;;5045111;28;20028;-69
2022/04/22 08:00:50;;;;;;;28.80;16.95;;;9.20;99.90;;;;;;5045651;28;20033;-68
2022/04/22 08:03:16;;;;;;;26.35;16.15;;;9.30;99.90;;;;;;5042565;28;20111;-69
2022/04/22 08:05:44;;;;;;;29.00;17.80;;;9.30;99.90;;;;;;5053134;28;20055;-69
2022/04/22 08:08:10;;;;;;;25.50;15.77;;;9.40;99.90;;;;;;5053101;28;20031;-69
2022/04/22 08:10:36;;;;;;;24.70;15.90;;;9.50;99.90;;;;;;5046844;28;20024;-69
2022/04/22 08:13:05;;;;;;;27.00;16.42;;;9.50;99.90;;;;;;5050001;28;20028;-69
2022/04/22 08:15:31;;;;;;;28.02;16.88;;;9.50;99.90;;;;;;5055083;28;20086;-69
2022/04/22 08:17:57;;;;;;;27.65;17.08;;;9.60;99.90;;;;;;5055795;28;20363;-69
2022/04/22 08:20:22;;;;;;;28.35;17.75;;;9.60;99.90;;;;;;5050657;28;20032;-69
2022/04/22 08:22:48;;;;;;;30.05;17.45;;;9.70;99.90;;;;;;5051506;28;20049;-69
2022/04/22 08:25:14;;;;;;;29.30;18.80;;;9.80;99.90;;;;;;5050530;28;20020;-70
2022/04/22 08:27:40;;;;;;;30.20;16.95;;;9.80;99.90;;;;;;5050577;28;20127;-70
2022/04/22 08:30:08;;;;;;;27.42;16.60;;;9.90;99.90;;;;;;5054155;28;20104;-70
2022/04/22 08:32:34;;;;;;;24.50;16.67;;;9.90;99.90;;;;;;5053226;28;20108;-70
2022/04/22 08:35:00;;;;;;;28.15;16.30;;;10.00;99.90;;;;;;5054590;28;20102;-68
2022/04/22 08:37:29;;;;;;;26.27;16.60;;;10.10;99.90;;;;;;5053737;28;20478;-68
2022/04/22 08:39:55;;;;;;;27.10;17.17;;;10.10;99.90;;;;;;5049713;28;20493;-67
2022/04/22 08:42:24;;;;;;;29.30;17.75;;;10.30;99.90;;;;;;5044608;28;20030;-70
2022/04/22 08:44:52;;;;;;;31.65;17.98;;;10.40;99.90;;;;;;5049210;28;20021;-69
2022/04/22 08:53:28;;;;;;;26.38;15.95;;;10.60;99.90;;;;;;5047423;28;20051;-68
2022/04/22 08:55:57;;;;;;;25.92;16.08;;;10.70;99.90;;;;;;5050274;28;20478;-68
2022/04/22 08:58:25;;;;;;;26.70;17.02;;;10.80;99.90;;;;;;5049409;28;20048;-68
2022/04/22 09:00:52;;;;;;;47.15;18.77;;;10.90;99.90;;;;;;5014277;28;20048;-69
2022/04/22 09:03:19;;;;;;;29.45;18.23;;;11.00;99.90;;;;;;5022507;28;20033;-69
2022/04/22 09:05:45;;;;;;;27.45;17.80;;;11.00;99.90;;;;;;5015922;28;20064;-69
2022/04/22 09:08:12;;;;;;;24.63;16.52;;;11.10;99.90;;;;;;5016464;28;20143;-70
2022/04/22 09:10:40;;;;;;;29.85;16.60;;;11.30;99.90;;;;;;5017942;28;20398;-68
2022/04/22 09:13:10;;;;;;;24.17;16.08;;;11.40;99.90;;;;;;5051615;28;20029;-69
2022/04/22 09:15:38;;;;;;;27.15;16.92;;;11.40;99.90;;;;;;5024070;28;20513;-68
2022/04/22 09:18:12;;;;;;;25.67;16.40;;;11.50;99.90;;;;;;5025805;28;20482;-68
2022/04/22 09:20:39;;;;;;;23.40;15.95;;;11.50;99.90;;;;;;5033331;28;20501;-68
2022/04/22 09:23:23;;;;;;;25.35;16.15;;;11.50;99.90;;;;;;5024819;28;20018;-68
2022/04/22 09:25:48;;;;;;;25.85;16.80;;;11.60;99.90;;;;;;5024977;28;20025;-68
2022/04/22 09:28:14;;;;;;;30.27;16.17;;;11.60;99.90;;;;;;5032011;28;20393;-68
2022/04/22 09:30:43;;;;;;;24.25;15.77;;;11.70;99.90;;;;;;5028540;28;20112;-69
2022/04/22 09:33:09;;;;;;;24.27;15.70;;;11.70;99.90;;;;;;5027803;28;20070;-68
2022/04/22 09:42:38;;;;;;;24.08;16.15;;;11.80;99.90;;;;;;5019319;28;20040;-68
2022/04/22 09:43:59;;;;;;;22.70;15.30;;;12.10;99.90;;;;;;5020087;28;20151;-67
2022/04/22 09:46:32;;;;;;;25.38;16.33;;;12.10;99.90;;;;;;5019301;28;20033;-70
2022/04/22 09:48:59;;;;;;;24.93;15.83;;;12.10;99.90;;;;;;5020301;28;20027;-67
2022/04/22 09:51:33;;;;;;;22.40;16.15;;;12.20;99.90;;;;;;5020461;28;20033;-70
2022/04/22 09:54:08;;;;;;;23.30;14.93;;;12.20;99.90;;;;;;5021849;28;20389;-68
2022/04/22 09:56:34;;;;;;;24.63;16.73;;;12.20;99.90;;;;;;5017296;28;20037;-70
2022/04/22 09:59:23;;;;;;;27.13;16.30;;;12.30;99.90;;;;;;5020475;28;20041;-68
2022/04/22 10:01:50;;;;;;;24.23;16.08;;;12.40;99.80;;;;;;5020839;28;20079;-69
2022/04/22 10:04:22;;;;;;;24.92;14.05;;;12.50;99.50;;;;;;5020821;28;20030;-70
2022/04/22 10:06:49;;;;;;;22.95;14.98;;;12.60;99.30;;;;;;5022713;28;20061;-69
2022/04/22 10:09:16;;;;;;;21.67;14.77;;;12.70;99.00;;;;;;5020386;28;20026;-69
2022/04/22 10:11:43;;;;;;;21.60;15.15;;;12.70;99.00;;;;;;5019732;28;20049;-68
2022/04/22 10:14:10;;;;;;;22.88;14.57;;;12.80;98.90;;;;;;5020785;28;20026;-68
2022/04/22 10:16:36;;;;;;;21.05;14.65;;;12.90;98.60;;;;;;5018302;28;20319;-68
2022/04/22 10:19:02;;;;;;;20.05;13.90;;;13.00;98.40;;;;;;5022116;28;20021;-69
2022/04/22 10:21:29;;;;;;;21.35;14.70;;;13.10;97.80;;;;;;5018866;28;20028;-69
2022/04/22 10:23:58;;;;;;;20.60;14.25;;;13.20;97.80;;;;;;5020372;28;20040;-69
2022/04/22 10:26:26;;;;;;;24.75;14.20;;;13.20;97.50;;;;;;5019993;28;20025;-69
2022/04/22 10:28:53;;;;;;;20.25;14.52;;;13.20;97.10;;;;;;5019465;28;20082;-69
2022/04/22 10:31:22;;;;;;;19.50;13.60;;;13.30;97.10;;;;;;5020260;28;20036;-69
2022/04/22 10:33:48;;;;;;;18.58;13.57;;;13.30;97.00;;;;;;5014526;23;20049;-70
2022/04/22 10:36:16;;;;;;;18.00;13.38;;;13.40;96.80;;;;;;4980635;28;20022;-70
2022/04/22 10:38:45;;;;;;;20.95;13.35;;;13.40;96.70;;;;;;4995989;28;20026;-70
2022/04/22 10:41:18;;;;;;;20.83;13.57;;;13.40;96.60;;;;;;4980483;28;20033;-70
2022/04/22 10:47:13;;;;;;;17.48;12.73;;;13.50;96.40;;;;;;4980268;28;20041;-69
2022/04/22 10:49:37;;;;;;;18.48;13.90;;;13.70;95.80;;;;;;5027703;28;20035;-69
2022/04/22 10:52:09;;;;;;;19.92;13.10;;;13.80;95.40;;;;;;5033361;28;20449;-69
2022/04/22 10:54:58;;;;;;;20.10;12.40;;;13.90;95.30;;;;;;5035969;28;20021;-69
2022/04/22 10:57:25;;;;;;;20.48;12.85;;;13.90;95.10;;;;;;5019681;28;20030;-69
2022/04/22 11:00:09;;;;;;;16.17;12.48;;;13.90;95.00;;;;;;5029449;28;20540;-69
2022/04/22 11:02:40;;;;;;;19.50;13.07;;;14.00;94.90;;;;;;5023949;28;20470;-69
2022/04/22 11:05:26;;;;;;;17.42;12.32;;;14.00;94.70;;;;;;5029121;28;20026;-69
2022/04/22 11:07:53;;;;;;;21.95;13.07;;;14.10;94.40;;;;;;5037677;28;20036;-69
2022/04/22 11:10:22;;;;;;;23.13;13.77;;;14.30;94.40;;;;;;5026793;28;20385;-69
2022/04/22 11:12:53;;;;;;;18.63;12.90;;;14.40;94.40;;;;;;5024306;28;20029;-69
2022/04/22 11:15:46;;;;;;;23.95;12.48;;;14.40;94.10;;;;;;5022115;28;20029;-69
2022/04/22 11:18:13;;;;;;;16.02;12.02;;;14.60;93.90;;;;;;5023996;28;20028;-69
2022/04/22 11:20:47;;;;;;;17.73;12.75;;;14.60;93.50;;;;;;5024545;28;20025;-69
2022/04/22 11:23:13;;;;;;;17.50;12.23;;;14.60;93.40;;;;;;5024991;28;20088;-69
2022/04/22 11:25:41;;;;;;;16.98;11.50;;;14.70;93.30;;;;;;5019887;28;20114;-69
2022/04/22 11:28:08;;;;;;;14.13;11.10;;;14.70;93.00;;;;;;5024707;28;20021;-69
2022/04/22 11:30:34;;;;;;;19.92;12.35;;;14.80;93.00;;;;;;5024993;28;20025;-69
2022/04/22 11:33:12;;;;;;;17.95;12.60;;;14.90;92.70;;;;;;5031739;28;20053;-69
2022/04/22 11:35:39;;;;;;;17.33;11.98;;;14.90;92.10;;;;;;5028866;28;20032;-69
2022/04/22 11:38:06;;;;;;;17.35;12.15;;;15.00;92.40;;;;;;5029812;28;20064;-69
2022/04/22 11:40:37;;;;;;;18.40;12.38;;;15.10;91.90;;;;;;5025166;28;20101;-69
2022/04/22 11:43:07;;;;;;;15.38;11.20;;;15.00;91.90;;;;;;5028704;28;20010;-69
2022/04/22 11:45:36;;;;;;;16.50;11.52;;;15.10;91.60;;;;;;5030438;28;20029;-69
2022/04/22 11:48:13;;;;;;;16.73;11.60;;;15.20;91.70;;;;;;5024065;28;20029;-69
2022/04/22 11:50:39;;;;;;;15.40;11.38;;;15.20;91.30;;;;;;5030213;28;20087;-68
2022/04/22 11:53:16;;;;;;;17.52;11.50;;;15.20;91.50;;;;;;5033811;28;20029;-69
2022/04/22 11:55:43;;;;;;;13.80;10.70;;;15.30;91.40;;;;;;5032288;28;20030;-68
2022/04/22 11:58:16;;;;;;;18.30;11.95;;;15.40;91.10;;;;;;5025056;28;20037;-69
2022/04/22 12:06:14;;;;;;;15.68;11.43;;;15.50;90.70;;;;;;5027121;28;20029;-69
2022/04/22 12:08:53;;;;;;;17.70;11.55;;;15.60;90.60;;;;;;5028098;28;20029;-69
2022/04/22 12:11:20;;;;;;;18.30;11.68;;;15.70;90.40;;;;;;5034736;28;20024;-69
2022/04/22 12:13:47;;;;;;;15.85;10.25;;;15.80;89.90;;;;;;5031160;28;20029;-68
2022/04/22 12:16:20;;;;;;;17.65;11.23;;;15.80;89.90;;;;;;5026463;28;20038;-69
2022/04/22 12:18:48;;;;;;;12.52;10.10;;;15.70;89.80;;;;;;5030282;28;20049;-69
2022/04/22 12:21:15;;;;;;;13.27;10.02;;;15.70;89.90;;;;;;5024882;28;20355;-69
2022/04/22 12:23:42;;;;;;;19.88;11.48;;;15.70;89.40;;;;;;5027223;28;20021;-69
2022/04/22 12:26:22;;;;;;;15.85;11.05;;;15.80;89.40;;;;;;5025389;28;20025;-69
2022/04/22 12:28:59;;;;;;;17.13;11.85;;;15.90;88.90;;;;;;5030053;28;20053;-70
2022/04/22 12:31:30;;;;;;;16.80;11.18;;;15.90;87.90;;;;;;5021221;28;20049;-69
2022/04/22 12:34:01;;;;;;;15.75;10.02;;;16.00;87.80;;;;;;5033522;28;20539;-69
2022/04/22 12:36:27;;;;;;;14.73;10.70;;;16.00;87.80;;;;;;5026951;28;20026;-68
2022/04/22 12:38:53;;;;;;;14.18;10.52;;;16.00;86.60;;;;;;5032045;28;20029;-69
2022/04/22 12:41:23;;;;;;;21.05;9.98;;;16.00;86.30;;;;;;5032884;28;20044;-69
2022/04/22 12:43:53;;;;;;;15.43;10.63;;;16.10;86.60;;;;;;5027241;28;20071;-69
2022/04/22 12:52:08;;;;;;;15.02;10.88;;;16.30;84.70;;;;;;5026533;28;20036;-68
2022/04/22 12:54:34;;;;;;;13.85;9.45;;;16.30;85.00;;;;;;5030967;28;20056;-68
2022/04/22 12:56:59;;;;;;;14.88;11.57;;;16.40;84.60;;;;;;5031495;28;20045;-68
2022/04/22 12:59:43;;;;;;;13.45;10.40;;;16.40;84.40;;;;;;5031682;28;20053;-69
2022/04/22 13:02:10;;;;;;;14.90;11.40;;;16.40;84.10;;;;;;5027215;28;20535;-69
2022/04/22 13:04:55;;;;;;;15.65;10.60;;;16.40;84.20;;;;;;5030937;28;20458;-69
2022/04/22 13:07:21;;;;;;;17.17;10.90;;;16.40;84.40;;;;;;5029373;28;20021;-69
2022/04/22 13:09:48;;;;;;;14.52;10.90;;;16.50;84.40;;;;;;5026209;28;20018;-69
2022/04/22 13:12:14;;;;;;;15.50;11.68;;;16.60;83.70;;;;;;5033546;28;20021;-68
2022/04/22 13:14:41;;;;;;;14.23;11.10;;;16.50;83.40;;;;;;5033460;28;20056;-68
2022/04/22 13:17:16;;;;;;;12.27;10.32;;;16.50;83.50;;;;;;5033520;28;20377;-69
2022/04/22 13:19:42;;;;;;;12.10;9.98;;;16.40;83.40;;;;;;5029587;28;20105;-69
2022/04/22 13:22:07;;;;;;;14.73;10.35;;;16.60;83.70;;;;;;5029525;28;20441;-69
2022/04/22 13:24:33;;;;;;;11.68;8.70;;;16.50;83.50;;;;;;5032095;28;20021;-69
2022/04/22 13:26:59;;;;;;;13.35;9.45;;;16.50;83.50;;;;;;5030701;28;20034;-69
2022/04/22 13:29:24;;;;;;;17.58;11.55;;;16.70;82.70;;;;;;5028510;28;20116;-69
2022/04/22 13:31:50;;;;;;;12.80;9.13;;;16.80;82.30;;;;;;5032638;28;20100;-69
2022/04/22 13:34:16;;;;;;;11.63;9.48;;;16.80;81.90;;;;;;5030237;28;20029;-69
2022/04/22 13:36:43;;;;;;;14.00;9.85;;;16.90;81.40;;;;;;5030990;28;20046;-68
2022/04/22 13:39:08;;;;;;;13.25;9.13;;;16.90;80.70;;;;;;5029678;28;20030;-69
2022/04/22 13:41:34;;;;;;;14.70;9.27;;;16.80;81.00;;;;;;5031904;28;20033;-69
2022/04/22 13:44:00;;;;;;;12.85;10.43;;;16.80;80.70;;;;;;5027692;28;20697;-69
2022/04/22 13:54:46;;;;;;;12.57;8.10;;;16.90;80.10;;;;;;5017943;28;20072;-68
2022/04/22 13:57:12;;;;;;;11.25;8.68;;;16.90;79.70;;;;;;5024077;28;20025;-68
2022/04/22 13:59:37;;;;;;;14.63;9.43;;;17.00;79.30;;;;;;5026415;28;20505;-69
2022/04/22 14:02:03;;;;;;;12.15;8.90;;;17.10;79.30;;;;;;5027978;28;20506;-69
2022/04/22 14:04:31;;;;;;;12.88;8.98;;;17.10;79.50;;;;;;5028096;28;20485;-69